Time;durP1;ratioP1;P1;durP2;ratioP2;P2;SDS_P1;SDS_P2;PMS_P1;PMS_P2;Temp;Humidity;BMP_temperature;BMP_pressure;BME280_temperature;BME280_humidity;BME280_pressure;Samples;Min_cycle;Max_cycle;Signal;HPM_P1;HPM_P2
2023/02/24 06:16:52;;;;;;;57.92;25.65;;;;;;;6.44;100.00;98327.03;5122308;27;20373;-79
2023/02/24 06:19:19;;;;;;;67.30;28.52;;;;;;;6.38;100.00;98312.38;5107348;28;20430;-79
2023/02/24 06:21:46;;;;;;;63.13;27.75;;;;;;;6.48;100.00;98323.78;5111800;28;20050;-79
2023/02/24 06:24:14;;;;;;;67.35;27.58;;;;;;;6.58;100.00;98322.72;5112475;28;20054;-80
2023/02/24 06:26:42;;;;;;;61.03;27.38;;;;;;;6.47;100.00;98305.91;5110959;28;20048;-79
2023/02/24 06:29:13;;;;;;;61.67;26.23;;;;;;;6.68;100.00;98326.03;5109496;28;20092;-80
2023/02/24 06:31:40;;;;;;;66.18;27.55;;;;;;;6.59;100.00;98319.00;5114972;28;20520;-80
2023/02/24 06:34:10;;;;;;;64.82;25.85;;;;;;;6.62;100.00;98324.88;5111946;28;20051;-80
2023/02/24 06:36:37;;;;;;;60.42;26.67;;;;;;;6.69;100.00;98316.91;5111844;28;20124;-80
2023/02/24 06:39:06;;;;;;;65.25;27.40;;;;;;;6.66;100.00;98312.69;5112287;28;20043;-80
2023/02/24 06:41:33;;;;;;;71.20;28.25;;;;;;;6.69;100.00;98320.44;5109425;28;20079;-81
2023/02/24 06:44:00;;;;;;;68.80;29.48;;;;;;;6.63;100.00;98296.84;5109280;28;20047;-80
2023/02/24 06:46:26;;;;;;;69.50;28.77;;;;;;;6.69;100.00;98300.69;5115532;28;20047;-80
2023/02/24 06:48:53;;;;;;;79.28;28.27;;;;;;;6.78;100.00;98306.88;5112906;28;20043;-80
2023/02/24 06:51:22;;;;;;;70.07;28.15;;;;;;;6.72;100.00;98309.28;5111914;28;20532;-79
2023/02/24 06:53:51;;;;;;;87.57;30.80;;;;;;;6.75;100.00;98307.25;5112463;28;20059;-80
2023/02/24 06:56:18;;;;;;;70.95;29.63;;;;;;;6.63;100.00;98283.34;5110972;28;20486;-79
2023/02/24 06:58:47;;;;;;;71.43;28.13;;;;;;;6.78;100.00;98307.72;5110501;28;20052;-79
2023/02/24 07:01:16;;;;;;;73.82;30.85;;;;;;;6.71;100.00;98291.41;5101605;28;20044;-79
2023/02/24 07:03:59;;;;;;;78.78;30.55;;;;;;;6.75;100.00;98297.28;5099379;28;20052;-80
2023/02/24 07:06:28;;;;;;;83.03;29.67;;;;;;;6.68;100.00;98285.50;5109085;28;20047;-80
2023/02/24 07:08:57;;;;;;;73.47;28.33;;;;;;;6.90;100.00;98308.94;5109378;28;20067;-80
2023/02/24 07:11:24;;;;;;;73.80;30.10;;;;;;;6.72;100.00;98282.25;5109214;28;20443;-80
2023/02/24 07:13:52;;;;;;;75.65;30.10;;;;;;;6.76;100.00;98292.69;5106989;28;20063;-80
2023/02/24 07:16:23;;;;;;;87.15;31.52;;;;;;;6.80;100.00;98300.25;5107331;28;20046;-80
2023/02/24 07:18:55;;;;;;;75.07;29.58;;;;;;;6.66;100.00;98291.09;5112916;28;20043;-80
2023/02/24 07:21:23;;;;;;;73.05;27.80;;;;;;;6.74;100.00;98295.59;5106816;28;20131;-80
2023/02/24 07:23:55;;;;;;;79.28;28.85;;;;;;;6.72;100.00;98298.47;5105782;28;20047;-80
2023/02/24 07:26:29;;;;;;;85.97;30.58;;;;;;;6.64;100.00;98290.44;5104800;28;20046;-79
2023/02/24 07:28:55;;;;;;;77.70;26.85;;;;;;;6.76;100.00;98304.34;5088748;28;20074;-80
2023/02/24 07:31:24;;;;;;;70.45;28.20;;;;;;;6.71;100.00;98302.22;5100180;28;20047;-80
2023/02/24 07:33:54;;;;;;;77.55;28.65;;;;;;;6.56;100.00;98271.59;5093629;28;20056;-80
2023/02/24 07:36:22;;;;;;;82.35;26.63;;;;;;;6.73;100.00;98292.03;5095227;28;20047;-80
2023/02/24 07:38:52;;;;;;;69.03;26.95;;;;;;;6.61;100.00;98282.69;5094405;28;20124;-80
2023/02/24 07:41:21;;;;;;;72.93;26.77;;;;;;;6.60;100.00;98282.88;5091682;28;20043;-80
2023/02/24 07:43:50;;;;;;;71.65;25.52;;;;;;;6.66;100.00;98290.25;5090924;28;20048;-80
2023/02/24 07:46:22;;;;;;;63.97;24.05;;;;;;;6.54;100.00;98276.34;5092585;28;20036;-80
2023/02/24 07:48:51;;;;;;;67.88;25.67;;;;;;;6.59;100.00;98271.22;5093518;28;20045;-80
2023/02/24 07:51:21;;;;;;;63.78;24.73;;;;;;;6.48;100.00;98267.09;5097276;28;20043;-80
2023/02/24 07:53:49;;;;;;;67.40;26.27;;;;;;;6.57;100.00;98273.28;5102085;28;20047;-80
2023/02/24 07:56:17;;;;;;;72.80;27.05;;;;;;;6.62;100.00;98284.34;5098071;28;20044;-80
2023/02/24 07:58:45;;;;;;;68.07;26.08;;;;;;;6.56;100.00;98285.09;5095848;28;20057;-80
2023/02/24 08:01:21;;;;;;;74.07;26.05;;;;;;;6.50;100.00;98283.97;5095482;28;20062;-80
2023/02/24 08:03:48;;;;;;;78.97;26.73;;;;;;;6.61;100.00;98292.66;5090864;28;20874;-80
2023/02/24 08:06:19;;;;;;;79.95;24.08;;;;;;;6.40;100.00;98261.78;5092294;28;20522;-79
2023/02/24 08:08:57;;;;;;;89.32;28.02;;;;;;;6.59;100.00;98278.50;5097769;28;20066;-80
2023/02/24 08:11:33;;;;;;;77.00;26.38;;;;;;;6.47;100.00;98260.00;5093261;28;20446;-79
2023/02/24 08:14:01;;;;;;;71.95;27.15;;;;;;;6.44;100.00;98252.25;5091487;28;20067;-80
2023/02/24 08:16:38;;;;;;;86.30;28.90;;;;;;;6.40;100.00;98255.50;5096219;28;20048;-80
2023/02/24 08:19:04;;;;;;;77.68;25.90;;;;;;;6.38;100.00;98256.56;5089121;28;20059;-80
2023/02/24 08:21:36;;;;;;;72.70;26.85;;;;;;;6.39;100.00;98251.97;5089795;28;20071;-80
2023/02/24 08:24:04;;;;;;;72.32;24.95;;;;;;;6.50;100.00;98265.06;5085603;28;20479;-80
2023/02/24 08:26:36;;;;;;;69.88;25.23;;;;;;;6.53;100.00;98275.50;5091318;28;20063;-80
2023/02/24 08:29:06;;;;;;;67.88;23.27;;;;;;;6.53;100.00;98272.81;5091175;28;20044;-80
2023/02/24 08:31:32;;;;;;;71.20;24.63;;;;;;;6.47;100.00;98267.28;5093647;28;20557;-80
2023/02/24 08:33:59;;;;;;;75.85;27.25;;;;;;;6.40;100.00;98250.97;5096848;28;20051;-80
2023/02/24 08:36:28;;;;;;;67.60;23.38;;;;;;;6.47;100.00;98256.47;5099460;28;20403;-80
2023/02/24 08:38:58;;;;;;;63.33;22.42;;;;;;;6.55;100.00;98262.66;5094598;28;20059;-81
2023/02/24 08:41:43;;;;;;;66.57;22.75;;;;;;;6.49;100.00;98241.78;5095726;28;20101;-80
2023/02/24 08:44:17;;;;;;;62.75;23.92;;;;;;;6.51;100.00;98247.00;5091983;28;20471;-79
2023/02/24 08:46:47;;;;;;;66.03;23.85;;;;;;;6.67;100.00;98256.81;5090734;28;20093;-80
2023/02/24 08:49:15;;;;;;;71.80;25.33;;;;;;;6.72;100.00;98243.59;5097531;28;20043;-80
2023/02/24 08:51:43;;;;;;;65.82;24.98;;;;;;;6.74;100.00;98249.66;5092794;28;20144;-80
2023/02/24 08:54:14;;;;;;;71.57;24.75;;;;;;;6.83;100.00;98258.53;5091492;28;20066;-80
2023/02/24 08:56:43;;;;;;;69.95;24.27;;;;;;;6.65;100.00;98235.38;5100666;28;20544;-80
2023/02/24 08:59:27;;;;;;;73.43;26.90;;;;;;;6.71;100.00;98253.59;5092088;28;20556;-80
2023/02/24 09:02:17;;;;;;;72.40;24.05;;;;;;;6.60;100.00;98247.78;5092202;28;20411;-80
2023/02/24 09:04:44;;;;;;;76.57;26.40;;;;;;;6.55;100.00;98238.34;5097138;28;20039;-79
2023/02/24 09:07:15;;;;;;;66.28;23.92;;;;;;;6.68;100.00;98243.13;5108494;28;20523;-80
2023/02/24 09:09:42;;;;;;;79.47;23.73;;;;;;;6.63;100.00;98237.44;5113043;28;20047;-80
2023/02/24 09:12:20;;;;;;;71.93;24.88;;;;;;;6.63;100.00;98233.91;5111530;28;20047;-80
2023/02/24 09:14:49;;;;;;;80.63;26.10;;;;;;;6.71;100.00;98237.38;5112677;28;20047;-80
2023/02/24 09:17:19;;;;;;;79.03;26.45;;;;;;;6.79;100.00;98241.88;5102923;28;20332;-80
2023/02/24 09:22:39;;;;;;;62.28;21.75;;;;;;;6.71;100.00;98231.13;5089895;28;19970;-80
2023/02/24 09:25:17;;;;;;;62.55;22.77;;;;;;;6.72;100.00;98227.41;5091683;28;20403;-80
2023/02/24 09:27:46;;;;;;;70.40;24.00;;;;;;;6.70;100.00;98211.38;5071299;28;20071;-80
2023/02/24 09:30:34;;;;;;;77.37;23.77;;;;;;;6.85;100.00;98202.44;5071603;28;20483;-80
2023/02/24 09:33:05;;;;;;;64.97;21.70;;;;;;;6.84;100.00;98217.00;5094750;28;20377;-80
2023/02/24 09:35:35;;;;;;;64.38;21.00;;;;;;;6.88;100.00;98213.75;5091180;28;20044;-80
2023/02/24 09:38:04;;;;;;;53.45;19.33;;;;;;;6.84;100.00;98219.69;5090165;28;20055;-80
2023/02/24 09:40:47;;;;;;;54.95;19.40;;;;;;;6.86;100.00;98228.44;5102339;28;20055;-80
2023/02/24 09:43:17;;;;;;;56.42;19.48;;;;;;;6.77;100.00;98222.28;5110760;28;20138;-80
2023/02/24 09:45:57;;;;;;;56.22;20.27;;;;;;;6.89;100.00;98226.22;5101271;28;20058;-80
2023/02/24 09:48:31;;;;;;;61.95;20.90;;;;;;;6.77;100.00;98200.66;5096780;28;20047;-80
2023/02/24 09:51:02;;;;;;;62.08;21.33;;;;;;;6.96;100.00;98214.69;5091062;28;20384;-80
2023/02/24 09:53:37;;;;;;;63.53;22.58;;;;;;;6.94;100.00;98217.56;5090982;28;20077;-80
2023/02/24 09:56:14;;;;;;;64.78;21.30;;;;;;;6.89;100.00;98209.16;5090360;28;20048;-80
2023/02/24 09:58:47;;;;;;;60.50;22.00;;;;;;;6.87;100.00;98195.84;5073144;28;20047;-80
2023/02/24 10:01:41;;;;;;;71.72;22.38;;;;;;;6.94;100.00;98190.56;5090673;28;20048;-80
2023/02/24 10:04:29;;;;;;;68.78;20.63;;;;;;;6.89;100.00;98184.84;5090451;28;20126;-80
2023/02/24 10:07:06;;;;;;;65.40;22.65;;;;;;;6.99;100.00;98195.41;5100715;28;20052;-80
2023/02/24 10:09:37;;;;;;;61.75;21.42;;;;;;;7.10;100.00;98211.13;5089722;28;20090;-80
2023/02/24 10:12:27;;;;;;;70.63;22.67;;;;;;;7.22;100.00;98192.59;5094501;28;20048;-80
2023/02/24 10:17:46;;;;;;;69.47;24.45;;;;;;;7.20;100.00;98184.66;5089845;28;20101;-80
2023/02/24 10:20:29;;;;;;;72.20;23.75;;;;;;;7.39;100.00;98195.91;5090824;28;20067;-80
2023/02/24 10:22:59;;;;;;;69.97;22.23;;;;;;;7.35;100.00;98190.06;5101173;28;20138;-80
2023/02/24 10:25:38;;;;;;;69.10;22.33;;;;;;;7.44;100.00;98158.34;5092772;28;20143;-80
2023/02/24 10:28:21;;;;;;;68.33;23.83;;;;;;;7.46;100.00;98171.69;5097874;28;20051;-80
2023/02/24 10:31:02;;;;;;;65.53;22.17;;;;;;;7.41;100.00;98164.16;5103998;28;20040;-80
2023/02/24 10:33:37;;;;;;;63.30;21.35;;;;;;;7.42;100.00;98165.81;5090166;28;20052;-80
2023/02/24 10:36:07;;;;;;;67.20;21.88;;;;;;;7.55;100.00;98181.38;5090584;28;20044;-80
2023/02/24 10:38:35;;;;;;;65.88;22.85;;;;;;;7.42;100.00;98168.50;5092836;28;20047;-80
2023/02/24 10:41:05;;;;;;;65.57;23.38;;;;;;;7.57;100.00;98174.75;5095069;28;20054;-80
2023/02/24 10:43:44;;;;;;;64.22;21.73;;;;;;;7.45;100.00;98160.00;5096796;28;20044;-80
2023/02/24 10:46:21;;;;;;;67.40;22.60;;;;;;;7.51;100.00;98172.81;5107406;28;20039;-80
2023/02/24 10:48:59;;;;;;;78.22;23.63;;;;;;;7.52;100.00;98160.94;5110700;28;20052;-80
2023/02/24 10:51:31;;;;;;;60.25;21.05;;;;;;;7.47;100.00;98139.03;5110968;28;20075;-80
2023/02/24 10:54:21;;;;;;;70.93;24.38;;;;;;;7.58;100.00;98154.75;5100955;28;20052;-80
2023/02/24 10:57:06;;;;;;;70.47;22.92;;;;;;;7.58;100.00;98143.94;5087336;28;20483;-80
2023/02/24 11:00:18;;;;;;;61.40;22.17;;;;;;;7.71;100.00;98161.38;5089063;28;20127;-80
2023/02/24 11:02:55;;;;;;;64.05;21.83;;;;;;;7.50;100.00;98127.84;5091058;28;20466;-80
2023/02/24 11:05:37;;;;;;;60.35;20.42;;;;;;;7.59;100.00;98140.22;5095194;28;20060;-80
2023/02/24 11:08:14;;;;;;;62.65;21.42;;;;;;;7.61;100.00;98145.44;5098652;28;20476;-80
2023/02/24 11:10:57;;;;;;;61.80;22.00;;;;;;;7.60;100.00;98136.50;5086914;28;20051;-80
2023/02/24 11:18:54;;;;;;;59.63;20.77;;;;;;;7.84;100.00;98129.03;5114194;28;20088;-80
2023/02/24 11:21:26;;;;;;;57.35;20.00;;;;;;;7.75;100.00;98109.41;5107187;28;20427;-80
2023/02/24 11:23:56;;;;;;;61.53;20.27;;;;;;;7.79;100.00;98099.00;5092796;28;20479;-79
2023/02/24 11:26:25;;;;;;;54.45;20.30;;;;;;;7.97;100.00;98115.63;5094017;28;20168;-80
2023/02/24 11:29:12;;;;;;;45.80;18.52;;;;;;;7.97;100.00;98096.69;5094329;28;20083;-80
2023/02/24 11:31:51;;;;;;;48.53;17.27;;;;;;;7.82;100.00;98087.81;5093664;28;20407;-80
2023/02/24 11:34:27;;;;;;;47.30;17.70;;;;;;;7.89;100.00;98082.44;5093067;28;20430;-80
2023/02/24 11:37:05;;;;;;;55.40;19.13;;;;;;;8.03;100.00;98092.38;5096142;28;20050;-80
2023/02/24 11:39:53;;;;;;;53.58;19.23;;;;;;;8.01;100.00;98082.75;5092128;28;20044;-80
2023/02/24 11:42:24;;;;;;;47.53;16.73;;;;;;;8.00;100.00;98089.22;5111088;28;20043;-80
2023/02/24 11:44:55;;;;;;;57.97;18.88;;;;;;;7.73;100.00;98061.91;5096443;28;20067;-80
2023/02/24 11:47:29;;;;;;;55.22;18.38;;;;;;;7.86;100.00;98080.13;5093580;28;20051;-80
2023/02/24 11:50:16;;;;;;;52.30;19.23;;;;;;;7.83;100.00;98073.25;5093213;28;20056;-80
2023/02/24 11:52:48;;;;;;;53.72;19.13;;;;;;;7.77;100.00;98036.97;5092268;28;20083;-80
2023/02/24 11:55:23;;;;;;;48.92;17.90;;;;;;;7.89;100.00;98063.50;5092776;28;20048;-80
2023/02/24 11:57:54;;;;;;;53.92;18.60;;;;;;;7.78;100.00;98059.44;5097516;28;20040;-80
2023/02/24 12:00:24;;;;;;;45.83;19.17;;;;;;;7.69;100.00;98039.81;5093946;28;20047;-80
2023/02/24 12:02:58;;;;;;;57.38;20.13;;;;;;;7.94;100.00;98023.16;5092272;28;20056;-80
2023/02/24 12:05:27;;;;;;;53.80;17.98;;;;;;;8.15;100.00;98016.88;5092932;28;20051;-80
2023/02/24 12:08:01;;;;;;;48.83;17.53;;;;;;;8.24;100.00;98020.28;5092850;28;20068;-80
2023/02/24 12:10:32;;;;;;;44.33;17.27;;;;;;;8.43;100.00;98010.59;5091819;28;20044;-80
2023/02/24 12:13:08;;;;;;;46.83;16.98;;;;;;;8.44;100.00;97977.09;5091906;28;20052;-80
2023/02/24 12:15:41;;;;;;;48.42;18.52;;;;;;;8.77;100.00;97952.03;5092711;28;20044;-80
2023/02/24 12:18:18;;;;;;;47.20;16.33;;;;;;;8.97;100.00;97962.91;5103368;28;20043;-80
2023/02/24 12:20:48;;;;;;;48.42;17.40;;;;;;;8.84;100.00;97994.38;5103035;28;20044;-80
2023/02/24 12:23:23;;;;;;;43.33;16.55;;;;;;;8.74;100.00;97974.94;5091938;28;20058;-80
2023/02/24 12:26:05;;;;;;;45.28;18.17;;;;;;;8.78;100.00;97980.81;5096573;28;20093;-80
2023/02/24 12:28:45;;;;;;;41.75;17.15;;;;;;;8.97;100.00;97980.03;5104231;28;20094;-80
2023/02/24 12:31:22;;;;;;;47.10;17.67;;;;;;;8.91;100.00;97955.59;5112861;28;20055;-80
2023/02/24 12:34:01;;;;;;;39.47;15.35;;;;;;;9.06;100.00;97972.53;5089311;28;20063;-81
2023/02/24 12:36:42;;;;;;;50.35;17.73;;;;;;;9.11;100.00;97967.34;5093152;28;20048;-80
2023/02/24 12:39:14;;;;;;;45.65;17.70;;;;;;;9.04;100.00;97948.34;5092553;28;20123;-80
2023/02/24 12:41:55;;;;;;;42.45;17.27;;;;;;;8.94;100.00;97955.19;5092070;28;20048;-80
2023/02/24 12:44:31;;;;;;;50.83;18.83;;;;;;;9.03;100.00;97954.81;5091008;28;20131;-80
2023/02/24 12:47:05;;;;;;;48.92;18.23;;;;;;;8.92;100.00;97943.72;5091835;28;20601;-80
2023/02/24 12:50:01;;;;;;;42.75;17.05;;;;;;;8.97;100.00;97933.94;5097037;28;20048;-80
2023/02/24 12:52:36;;;;;;;43.15;17.33;;;;;;;9.23;100.00;97929.63;5087966;28;20418;-80
2023/02/24 12:55:11;;;;;;;48.72;19.08;;;;;;;9.13;100.00;97938.13;5091157;28;20054;-81
2023/02/24 12:57:47;;;;;;;42.35;15.90;;;;;;;8.94;100.00;97933.50;5090249;28;20044;-80
2023/02/24 13:00:21;;;;;;;48.95;17.17;;;;;;;8.87;100.00;97900.97;5098873;28;20058;-80
2023/02/24 13:02:57;;;;;;;43.30;16.70;;;;;;;8.76;100.00;97904.28;5093158;28;20052;-80
2023/02/24 13:05:29;;;;;;;47.60;18.00;;;;;;;8.97;100.00;97928.53;5091850;28;20059;-81
2023/02/24 13:08:15;;;;;;;32.65;13.35;;;;;;;9.06;100.00;97917.47;5091824;28;20055;-81
2023/02/24 13:10:47;;;;;;;47.08;16.80;;;;;;;8.94;100.00;97911.81;5091676;28;20044;-80
2023/02/24 13:13:20;;;;;;;43.70;16.17;;;;;;;8.78;100.00;97905.75;5091151;28;20431;-81
2023/02/24 13:15:52;;;;;;;41.53;15.75;;;;;;;8.90;100.00;97903.28;5090162;28;20055;-80
2023/02/24 13:18:26;;;;;;;39.85;15.75;;;;;;;9.03;100.00;97905.16;5091886;28;20415;-80
2023/02/24 13:21:03;;;;;;;44.33;15.90;;;;;;;9.16;100.00;97891.63;5106463;28;20047;-83
2023/02/24 13:23:30;;;;;;;29.73;11.75;;;;;;;9.06;100.00;97877.66;5111661;28;20047;-81
2023/02/24 13:25:59;;;;;;;41.50;14.30;;;;;;;9.24;100.00;97904.16;5111099;28;20051;-81
2023/02/24 13:28:29;;;;;;;42.50;15.32;;;;;;;9.19;100.00;97906.66;5111898;28;20051;-81
2023/02/24 13:31:02;;;;;;;36.03;15.18;;;;;;;9.18;100.00;97876.00;5098329;28;20455;-82
2023/02/24 13:33:32;;;;;;;43.80;16.50;;;;;;;9.28;100.00;97881.00;5092216;28;20501;-82
2023/02/24 13:36:15;;;;;;;43.40;15.18;;;;;;;9.09;100.00;97890.78;5104380;28;20052;-81
2023/02/24 13:38:44;;;;;;;48.83;17.70;;;;;;;8.93;100.00;97869.53;5109901;28;20051;-82
2023/02/24 13:41:24;;;;;;;46.83;17.58;;;;;;;8.91;100.00;97890.56;5111905;28;20054;-82
2023/02/24 13:43:56;;;;;;;40.45;16.88;;;;;;;8.80;100.00;97883.88;5110834;28;20469;-81
2023/02/24 13:46:23;;;;;;;44.38;16.15;;;;;;;8.63;100.00;97875.28;5103448;28;20047;-81
2023/02/24 13:49:11;;;;;;;51.15;17.05;;;;;;;8.71;100.00;97871.56;5089926;28;20054;-81
2023/02/24 13:51:59;;;;;;;49.50;16.48;;;;;;;8.54;100.00;97857.56;5108554;28;20047;-82
2023/02/24 13:54:48;;;;;;;43.28;15.73;;;;;;;8.79;100.00;97874.06;5091630;28;20105;-81
2023/02/24 13:57:44;;;;;;;36.92;15.18;;;;;;;8.83;100.00;97867.19;5083385;28;20113;-82
2023/02/24 14:00:25;;;;;;;45.28;15.70;;;;;;;8.64;100.00;97830.88;5086181;28;20044;-81
2023/02/24 14:02:52;;;;;;;43.13;16.88;;;;;;;8.83;100.00;97840.91;5087789;28;20410;-81
2023/02/24 14:05:23;;;;;;;38.70;13.30;;;;;;;8.73;100.00;97826.97;5088244;28;20048;-81
2023/02/24 14:07:52;;;;;;;40.33;14.20;;;;;;;8.88;100.00;97848.44;5088079;28;20381;-81
2023/02/24 14:10:23;;;;;;;35.05;13.65;;;;;;;8.90;100.00;97846.38;5082082;28;20143;-81
2023/02/24 14:13:01;;;;;;;34.55;14.20;;;;;;;8.86;100.00;97856.75;5080927;28;20131;-81
2023/02/24 14:15:28;;;;;;;37.22;13.73;;;;;;;8.86;100.00;97837.78;5079436;28;20052;-81
2023/02/24 14:17:56;;;;;;;34.00;13.75;;;;;;;8.71;100.00;97830.91;5085958;28;20419;-82
2023/02/24 14:20:24;;;;;;;32.10;12.35;;;;;;;8.63;100.00;97816.50;5085020;28;20052;-81
2023/02/24 14:22:53;;;;;;;37.70;14.55;;;;;;;8.57;100.00;97805.66;5087189;28;20506;-81
2023/02/24 14:25:20;;;;;;;37.28;14.20;;;;;;;8.74;100.00;97817.78;5086075;28;20510;-81
2023/02/24 14:27:52;;;;;;;36.42;13.52;;;;;;;8.77;100.00;97806.50;5088346;28;20493;-81
2023/02/24 14:30:31;;;;;;;38.90;14.25;;;;;;;8.57;100.00;97808.38;5085936;28;20063;-81
2023/02/24 14:32:58;;;;;;;37.63;13.43;;;;;;;8.53;100.00;97801.69;5087734;28;20051;-81
2023/02/24 14:35:31;;;;;;;41.25;16.23;;;;;;;8.49;100.00;97796.69;5088578;28;20281;-81
2023/02/24 14:37:57;;;;;;;37.40;13.60;;;;;;;8.52;100.00;97805.44;5087099;28;20036;-81
2023/02/24 14:40:24;;;;;;;34.42;15.50;;;;;;;8.60;100.00;97816.09;5090830;28;20048;-81
2023/02/24 14:42:55;;;;;;;36.75;14.63;;;;;;;8.55;100.00;97805.03;5089775;28;20048;-81
2023/02/24 14:45:25;;;;;;;34.67;14.18;;;;;;;8.49;100.00;97791.28;5091518;28;20089;-81
2023/02/24 14:47:51;;;;;;;29.03;12.23;;;;;;;8.42;100.00;97776.84;5086596;28;20487;-81
2023/02/24 14:50:20;;;;;;;50.35;14.80;;;;;;;8.46;100.00;97788.97;5093126;28;20305;-81
2023/02/24 14:52:50;;;;;;;32.80;13.30;;;;;;;8.31;100.00;97767.44;5091389;28;20048;-81
2023/02/24 14:55:18;;;;;;;;;;;;;;;8.37;100.00;97790.19;5095068;28;20518;-81
2023/02/24 14:57:51;;;;;;;37.17;15.02;;;;;;;8.35;100.00;97778.69;5090839;28;19931;-81
2023/02/24 15:00:25;;;;;;;44.72;17.00;;;;;;;8.41;100.00;97796.00;5092574;28;20054;-81
2023/02/24 15:03:03;;;;;;;31.02;13.60;;;;;;;8.31;100.00;97775.56;5087979;28;20048;-81
2023/02/24 15:05:30;;;;;;;38.90;13.85;;;;;;;8.39;100.00;97782.69;5089606;28;20048;-81
2023/02/24 15:07:58;;;;;;;34.53;14.05;;;;;;;8.38;100.00;97770.16;5104170;28;20052;-81
2023/02/24 15:10:30;;;;;;;37.40;13.60;;;;;;;8.28;100.00;97758.88;5092603;28;20465;-80
2023/02/24 15:13:00;;;;;;;31.85;13.80;;;;;;;8.38;100.00;97755.81;5091699;28;20050;-79
2023/02/24 15:15:30;;;;;;;31.88;12.57;;;;;;;8.52;100.00;97762.94;5099113;28;20044;-81
2023/02/24 15:18:03;;;;;;;36.35;14.32;;;;;;;8.56;100.00;97769.59;5100226;28;20058;-81
2023/02/24 15:20:33;;;;;;;32.33;13.07;;;;;;;8.37;100.00;97744.16;5096527;28;20058;-81
2023/02/24 15:23:00;;;;;;;34.80;14.65;;;;;;;8.52;100.00;97756.69;5098680;28;20056;-81
2023/02/24 15:25:29;;;;;;;37.75;13.77;;;;;;;8.53;100.00;97752.94;5091813;28;20131;-82
2023/02/24 15:27:58;;;;;;;31.67;12.32;;;;;;;8.56;100.00;97747.09;5097282;28;20134;-81
2023/02/24 15:30:30;;;;;;;28.08;14.82;;;;;;;8.49;100.00;97734.41;5100317;28;20054;-81
2023/02/24 15:33:02;;;;;;;35.72;12.80;;;;;;;8.70;100.00;97732.50;5096393;28;20413;-82
2023/02/24 15:35:32;;;;;;;30.70;13.38;;;;;;;8.56;100.00;97728.16;5091395;28;20044;-82
2023/02/24 15:38:00;;;;;;;32.15;14.50;;;;;;;8.48;100.00;97724.59;5096049;28;20563;-81
2023/02/24 15:40:28;;;;;;;34.25;13.35;;;;;;;8.39;100.00;97704.13;5091646;28;20047;-81
2023/02/24 15:42:56;;;;;;;31.50;14.30;;;;;;;8.59;100.00;97719.59;5092165;28;20139;-81
2023/02/24 15:45:30;;;;;;;33.03;13.93;;;;;;;8.52;100.00;97729.59;5096248;28;20048;-81
2023/02/24 15:47:59;;;;;;;28.92;12.95;;;;;;;8.42;100.00;97725.38;5088829;28;20127;-82
2023/02/24 15:50:27;;;;;;;30.40;12.32;;;;;;;8.33;100.00;97710.38;5091552;28;20399;-81
2023/02/24 15:52:56;;;;;;;27.17;12.65;;;;;;;8.30;100.00;97718.91;5089432;28;20048;-81
2023/02/24 15:55:24;;;;;;;36.40;14.32;;;;;;;8.25;100.00;97688.91;5090132;28;20052;-81
2023/02/24 15:57:57;;;;;;;33.55;15.38;;;;;;;8.24;100.00;97707.03;5094873;28;20067;-82
2023/02/24 16:00:24;;;;;;;29.70;12.35;;;;;;;8.33;100.00;97702.25;5091913;28;20048;-81
2023/02/24 16:02:52;;;;;;;30.88;13.82;;;;;;;8.17;100.00;97681.00;5088818;28;20056;-82
2023/02/24 16:05:18;;;;;;;30.50;14.68;;;;;;;8.22;100.00;97701.00;5095445;28;20060;-82
2023/02/24 16:07:46;;;;;;;35.53;13.25;;;;;;;8.15;100.00;97692.03;5090194;28;20047;-82
2023/02/24 16:10:19;;;;;;;39.45;14.35;;;;;;;8.19;100.00;97698.72;5090047;28;20049;-82
2023/02/24 16:12:49;;;;;;;28.27;12.38;;;;;;;8.11;100.00;97688.06;5091681;28;20052;-81
2023/02/24 16:15:21;;;;;;;26.10;11.27;;;;;;;8.18;100.00;97691.63;5095888;28;20048;-82
2023/02/24 16:17:48;;;;;;;27.85;11.20;;;;;;;8.07;100.00;97682.22;5092582;28;20046;-81
2023/02/24 16:20:19;;;;;;;25.35;12.15;;;;;;;8.00;100.00;97678.66;5096806;28;20039;-81
2023/02/24 16:22:45;;;;;;;30.27;12.43;;;;;;;8.08;100.00;97688.47;5090055;28;20410;-81
2023/02/24 16:25:15;;;;;;;33.42;13.13;;;;;;;7.98;100.00;97675.34;5089872;28;20048;-81
2023/02/24 16:27:42;;;;;;;31.35;13.98;;;;;;;8.06;100.00;97680.56;5088345;28;20056;-82
2023/02/24 16:30:15;;;;;;;36.22;13.05;;;;;;;7.95;100.00;97682.00;5091008;28;20472;-81
2023/02/24 16:32:42;;;;;;;36.63;11.68;;;;;;;7.90;100.00;97673.66;5088589;28;20048;-82
2023/02/24 16:35:09;;;;;;;32.45;11.50;;;;;;;7.87;100.00;97655.09;5090695;28;20047;-81
2023/02/24 16:37:38;;;;;;;24.80;10.88;;;;;;;8.02;100.00;97679.28;5080345;28;20525;-81
2023/02/24 16:40:18;;;;;;;30.35;10.52;;;;;;;7.93;100.00;97675.97;5089529;28;20050;-81
2023/02/24 16:42:45;;;;;;;28.75;9.88;;;;;;;7.92;100.00;97678.88;5085387;28;20055;-81
2023/02/24 16:45:12;;;;;;;29.15;10.93;;;;;;;7.82;100.00;97676.53;5092338;28;20695;-81
2023/02/24 16:47:39;;;;;;;29.92;11.40;;;;;;;7.81;100.00;97674.88;5093112;28;20044;-81
2023/02/24 16:50:06;;;;;;;20.35;9.85;;;;;;;7.85;100.00;97686.13;5100003;28;20052;-82
2023/02/24 16:52:33;;;;;;;20.60;9.73;;;;;;;7.70;100.00;97665.47;5096514;28;20416;-81
2023/02/24 16:55:01;;;;;;;28.83;10.93;;;;;;;7.79;100.00;97677.78;5088901;28;20062;-81
2023/02/24 16:57:28;;;;;;;22.20;10.43;;;;;;;7.72;100.00;97668.81;5089956;28;20040;-80
2023/02/24 16:59:54;;;;;;;23.65;10.55;;;;;;;7.69;100.00;97669.19;5097745;28;20044;-81
2023/02/24 17:02:24;;;;;;;24.08;10.27;;;;;;;7.74;100.00;97684.84;5095002;28;20055;-81
2023/02/24 17:04:50;;;;;;;23.10;10.50;;;;;;;7.68;100.00;97669.41;5087103;28;20054;-81
2023/02/24 17:07:19;;;;;;;25.42;10.27;;;;;;;7.55;100.00;97656.69;5088013;28;20051;-81
2023/02/24 17:09:46;;;;;;;24.63;9.70;;;;;;;7.61;100.00;97691.03;5092686;28;20527;-81
2023/02/24 17:12:17;;;;;;;30.00;13.02;;;;;;;7.61;100.00;97670.22;5090043;28;20052;-81
2023/02/24 17:14:43;;;;;;;21.77;10.32;;;;;;;7.66;100.00;97676.91;5091393;28;20052;-81
2023/02/24 17:17:10;;;;;;;32.22;10.90;;;;;;;7.54;100.00;97663.13;5091696;28;20067;-81
2023/02/24 17:19:37;;;;;;;33.45;12.02;;;;;;;7.49;100.00;97663.72;5097591;28;20051;-81
2023/02/24 17:22:04;;;;;;;23.13;10.00;;;;;;;7.50;100.00;97662.72;5087795;28;20180;-81
2023/02/24 17:24:31;;;;;;;25.77;11.18;;;;;;;7.51;100.00;97677.06;5101382;28;20051;-81
2023/02/24 17:26:59;;;;;;;27.92;10.55;;;;;;;7.57;100.00;97678.94;5109128;28;20048;-81
2023/02/24 17:29:27;;;;;;;27.77;10.45;;;;;;;7.48;100.00;97662.06;5090972;28;20051;-81
2023/02/24 17:31:54;;;;;;;29.40;10.75;;;;;;;7.38;100.00;97661.63;5091748;28;20039;-81
2023/02/24 17:34:22;;;;;;;29.60;11.13;;;;;;;7.36;100.00;97658.25;5090587;28;20051;-82
2023/02/24 17:36:49;;;;;;;26.00;11.98;;;;;;;7.48;100.00;97674.75;5093510;28;20052;-82
2023/02/24 17:39:15;;;;;;;26.10;12.02;;;;;;;7.39;100.00;97676.78;5097362;28;20040;-81
2023/02/24 17:41:42;;;;;;;35.97;11.80;;;;;;;7.50;100.00;97688.91;5086318;28;20062;-81
2023/02/24 17:44:08;;;;;;;24.35;11.32;;;;;;;7.32;100.00;97670.53;5090866;28;20070;-82
2023/02/24 17:46:36;;;;;;;28.45;12.18;;;;;;;7.41;100.00;97693.66;5089691;28;20399;-81
2023/02/24 17:49:04;;;;;;;28.67;11.68;;;;;;;7.28;100.00;97678.19;5092556;28;20058;-81
2023/02/24 17:51:31;;;;;;;31.08;11.93;;;;;;;7.30;100.00;97665.34;5088192;28;20054;-81
2023/02/24 17:53:57;;;;;;;29.27;11.23;;;;;;;7.41;100.00;97697.19;5087430;28;20044;-81
2023/02/24 17:56:24;;;;;;;26.27;11.80;;;;;;;7.42;100.00;97706.97;5085005;28;20043;-81
2023/02/24 17:58:54;;;;;;;33.90;11.95;;;;;;;7.28;100.00;97680.91;5093568;28;20044;-81
2023/02/24 18:01:20;;;;;;;26.88;10.38;;;;;;;7.22;100.00;97670.88;5088200;28;20048;-82
2023/02/24 18:03:48;;;;;;;29.65;12.48;;;;;;;7.31;100.00;97688.59;5086687;28;20068;-81
2023/02/24 18:06:15;;;;;;;29.65;12.25;;;;;;;7.26;100.00;97689.22;5087991;28;20044;-81